• Join FlightAware (Why Join?)
  • Login
  • US Flag 
12:49AM EDT


 

Airport Tracker/Info


-or-


 

Live Flight TrackerFlight Track Log ✈ EJM826 ✈ 14-Feb-2014 ✈ KJAC - KHOU

Flight Track Log - Related Links

Times and Time Zones

All times are in EST time to prevent confusion due to time zone crossing. See the EJM826 flight status page for this flight to view local times or setup timezone preferences in your user account.

Time Position Orientation Groundspeed Altitude Reporting Facility
EST Latitude Longitude Course Direction KTS MPH feet Rate Location/Type
11:16PM 43.1577 -110.0902 133° Southeast  Level Estimated
11:17PM 43.0673 -109.9618 134° Southeast  Level Estimated
11:17PM 43.5397 -110.7831 208° Southwest 157 181 10,800  Level Salt Lake Center
11:18PM 42.9768 -109.8338 134° Southeast  Level Estimated
11:18PM 43.5019 -110.8061 204° Southwest 150 173 13,200  Level Salt Lake Center
11:19PM 42.8862 -109.7062 134° Southeast  Level Estimated
11:19PM 43.4442 -110.7972 174° South 239 275 15,300  Level Salt Lake Center
11:20PM 42.7954 -109.5789 134° Southeast  Level Estimated
11:20PM 43.3803 -110.7228 140° Southeast 304 350 16,600  Level Salt Lake Center
11:21PM 42.7045 -109.4521 134° Southeast  Level Estimated
11:21PM 43.3008 -110.6467 145° Southeast 347 399 18,000  Level Salt Lake Center
11:22PM 42.6134 -109.3256 134° Southeast  Level Estimated
11:22PM 43.2092 -110.5600 145° Southeast 376 433 19,900  Level Salt Lake Center
11:23PM 43.1167 -110.4675 144° Southeast 393 452 21,200 1,260 Climbing Salt Lake Center
11:24PM 43.0092 -110.3619 144° Southeast 424 488 22,500 1,500 Climbing Salt Lake Center
11:25PM 42.9158 -110.2719 145° Southeast 428 493 24,300 1,740 Climbing Salt Lake Center
11:26PM 42.8219 -110.1822 145° Southeast 431 496 26,100 1,860 Climbing Salt Lake Center
11:28PM 42.7072 -110.0708 144° Southeast 451 519 28,200 1,800 Climbing Salt Lake Center
11:29PM 42.5986 -109.9658 145° Southeast 463 533 29,900 1,320 Climbing Salt Lake Center
11:30PM 42.4942 -109.8661 145° Southeast 477 549 31,000 1,260 Climbing Salt Lake Center
11:31PM 42.3839 -109.7628 145° Southeast 496 571 32,500 1,800 Climbing Salt Lake Center
11:32PM 42.2564 -109.6406 145° Southeast 503 579 34,800 1,980 Climbing Salt Lake Center
11:33PM 42.1503 -109.5403 145° Southeast 492 566 36,600 1,680 Climbing Salt Lake Center
11:34PM 42.0278 -109.4250 145° Southeast 482 555 38,300 1,440 Climbing Salt Lake Center
11:35PM 41.9236 -109.3275 145° Southeast 479 551 39,600 1,200 Climbing Salt Lake Center
11:36PM 41.8194 -109.2300 145° Southeast 477 549 40,800 900 Climbing Salt Lake Center
11:37PM 41.6964 -109.1164 145° Southeast 478 550 41,500 960 Climbing Salt Lake Center
11:38PM 41.5917 -109.0203 146° Southeast 474 545 42,800 720 Climbing Salt Lake Center
11:39PM 41.4897 -108.9158 142° Southeast 474 545 43,000 60 Climbing Salt Lake Center
11:40PM 41.3661 -108.7886 142° Southeast 494 568 43,000  Level Salt Lake Center
11:41PM 41.2675 -108.6625 136° Southeast 514 592 43,000  Level Salt Lake Center
11:42PM 41.1719 -108.5275 133° Southeast 521 600 43,000  Level Salt Lake Center
11:43PM 41.0606 -108.3681 133° Southeast 526 605 43,000  Level Salt Lake Center
11:43PM 40.9972 -108.2769 133° Southeast 522 601 43,000  Level Denver Center
11:44PM 40.9031 -108.1442 133° Southeast 519 597 43,000  Level Denver Center
11:46PM 40.7911 -107.9869 133° Southeast 526 605 43,000  Level Denver Center
11:47PM 40.6975 -107.8567 133° Southeast 523 602 43,000  Level Denver Center
11:48PM 40.6019 -107.7247 134° Southeast 519 597 43,000  Level Denver Center
11:49PM 40.4914 -107.5700 133° Southeast 519 597 43,000  Level Denver Center
11:50PM 40.3961 -107.4383 134° Southeast 518 596 43,000  Level Denver Center
11:51PM 40.2839 -107.2858 134° Southeast 519 597 43,000  Level Denver Center
11:52PM 40.1883 -107.1547 134° Southeast 519 597 43,000  Level Denver Center
11:53PM 40.0933 -107.0264 134° Southeast 516 594 43,000  Level Denver Center
11:54PM 39.9831 -106.8742 133° Southeast 516 594 43,000  Level Denver Center
11:55PM 39.8889 -106.7486 134° Southeast 513 590 43,000  Level Denver Center
11:56PM 39.7897 -106.6136 134° Southeast 510 587 43,000  Level Denver Center
11:57PM 39.6806 -106.4686 134° Southeast 520 598 43,000  Level Denver Center
11:58PM 39.5825 -106.3369 134° Southeast 528 608 43,000  Level Denver Center
11:59PM 39.4769 -106.1978 134° Southeast 535 616 43,000  Level Denver Center
12:00AM 39.3708 -106.0594 135° Southeast 532 612 43,000  Level Denver Center
12:01AM 39.2878 -105.9506 135° Southeast 533 613 43,000  Level Denver Center
12:02AM 39.1664 -105.7906 134° Southeast 526 605 43,000  Level Denver Center
12:03AM 39.0669 -105.6603 134° Southeast 515 593 43,000  Level Denver Center
12:04AM 38.9492 -105.5083 135° Southeast 503 579 43,000  Level Denver Center
12:05AM 38.8522 -105.3817 134° Southeast 500 575 43,000  Level Denver Center
12:06AM 38.7547 -105.2567 135° Southeast 498 573 43,000  Level Denver Center
12:07AM 38.6578 -105.1336 135° Southeast 495 570 43,000  Level Denver Center
12:08AM 38.5592 -105.0081 135° Southeast 503 579 43,000  Level Denver Center
12:09AM 38.4603 -104.8817 135° Southeast 504 580 43,100  Climbing Denver Center
12:10AM 38.3619 -104.7572 135° Southeast 500 575 43,000 -60 Descending Denver Center
12:11AM 38.2478 -104.6133 135° Southeast 510 587 43,000  Level Denver Center
12:12AM 38.1511 -104.4933 136° Southeast 508 585 43,000  Level Denver Center
12:13AM 38.0533 -104.3739 136° Southeast 509 586 43,000  Level Denver Center
12:14AM 37.9389 -104.2317 136° Southeast 513 590 43,000  Level Denver Center
12:15AM 37.8397 -104.1089 136° Southeast 517 595 43,000  Level Denver Center
12:16AM 37.7392 -103.9853 136° Southeast 520 598 43,000  Level Denver Center
12:17AM 37.6186 -103.8364 136° Southeast 530 610 43,000  Level Denver Center
12:18AM 37.5153 -103.7094 136° Southeast 532 612 43,000  Level Denver Center
12:19AM 37.4125 -103.5844 136° Southeast 532 612 43,000  Level Denver Center
12:20AM 37.2933 -103.4408 136° Southeast 530 610 43,000  Level Denver Center
12:21AM 37.2106 -103.3386 135° Southeast 526 605 43,000  Level Albuquerque Center
12:22AM 37.0919 -103.1997 137° Southeast 523 602 43,000  Level Albuquerque Center
12:23AM 36.9914 -103.0794 136° Southeast 522 601 43,000  Level Albuquerque Center
12:24AM 36.8922 -102.9606 136° Southeast 518 596 43,000  Level Albuquerque Center
12:25AM 36.7772 -102.8228 136° Southeast 514 592 43,000  Level Albuquerque Center
12:26AM 36.6783 -102.7053 136° Southeast 512 589 43,000  Level Albuquerque Center
12:27AM 36.5772 -102.5864 137° Southeast 516 594 43,000  Level Albuquerque Center
12:28AM 36.4736 -102.4633 136° Southeast 517 595 43,000  Level Albuquerque Center
12:29AM 36.3694 -102.3425 137° Southeast 514 592 43,000  Level Albuquerque Center
12:30AM 36.2653 -102.2219 137° Southeast 513 590 43,000  Level Albuquerque Center
12:31AM 36.1617 -102.1008 137° Southeast 512 589 43,000  Level Albuquerque Center
12:32AM 36.0575 -101.9811 137° Southeast 513 590 43,000  Level Albuquerque Center
12:33AM 35.9528 -101.8603 137° Southeast 513 590 43,000  Level Albuquerque Center
12:34AM 35.8281 -101.7164 137° Southeast 512 589 43,000  Level Albuquerque Center
12:35AM 35.7239 -101.5972 137° Southeast 509 586 43,000  Level Albuquerque Center
12:36AM 35.6194 -101.4767 137° Southeast 509 586 43,000  Level Albuquerque Center
12:37AM 35.5136 -101.3569 137° Southeast 511 588 43,000  Level Albuquerque Center
12:38AM 35.4078 -101.2375 137° Southeast 511 588 43,000  Level Albuquerque Center
12:39AM 35.3019 -101.1192 138° Southeast 510 587 43,000  Level Albuquerque Center
12:40AM 35.1961 -101.0008 138° Southeast 512 589 43,000  Level Albuquerque Center
12:41AM 35.0919 -100.8842 137° Southeast 509 586 43,000  Level Albuquerque Center
12:42AM 34.9872 -100.7675 138° Southeast 509 586 43,000  Level Albuquerque Center
12:43AM 34.8828 -100.6508 137° Southeast 508 585 43,000  Level Albuquerque Center
12:44AM 34.7789 -100.5361 138° Southeast 507 583 43,000  Level Albuquerque Center
12:45AM 34.6747 -100.4208 138° Southeast 506 582 43,000  Level Albuquerque Center
12:46AM 34.5708 -100.3072 138° Southeast 505 581 43,000  Level Albuquerque Center
12:47AM 34.4669 -100.1919 138° Southeast 505 581 43,000  Level Albuquerque Center
12:49AM 34.3011 -100.0142 138° Southeast 508 585 43,000  Level Fort Worth Center
12:50AM 34.1961 -99.8972 137° Southeast 510 587 43,000  Level Fort Worth Center
12:51AM 34.0906 -99.7864 139° Southeast 509 586 43,000  Level Fort Worth Center
12:52AM 33.9842 -99.6722 138° Southeast 503 579 43,000  Level Fort Worth Center
12:53AM 33.8803 -99.5611 138° Southeast 504 580 43,000  Level Fort Worth Center
12:54AM 33.7753 -99.4492 138° Southeast 504 580 43,000  Level Fort Worth Center
12:55AM 33.6700 -99.3358 138° Southeast 506 582 43,000  Level Fort Worth Center
12:56AM 33.5658 -99.2239 138° Southeast 501 577 43,000  Level Fort Worth Center
12:57AM 33.4617 -99.1125 138° Southeast 499 574 43,000  Level Fort Worth Center
12:58AM 33.3581 -99.0022 138° Southeast 496 571 43,000  Level Fort Worth Center
12:59AM 33.2553 -98.8933 138° Southeast 495 570 43,000  Level Fort Worth Center
01:00AM 33.1517 -98.7839 138° Southeast 495 570 43,000  Level Fort Worth Center
01:01AM 33.0283 -98.6531 138° Southeast 493 567 43,000  Level Fort Worth Center
01:02AM 32.9447 -98.5664 139° Southeast 494 568 43,000  Level Fort Worth Center
01:03AM 32.8306 -98.4478 139° Southeast 493 567 43,000  Level Fort Worth Center
01:04AM 32.7272 -98.3400 139° Southeast 494 568 43,000  Level Fort Worth Center
01:05AM 32.6250 -98.2336 139° Southeast 493 567 43,000  Level Fort Worth Center
01:06AM 32.5203 -98.1261 139° Southeast 498 573 43,000  Level Fort Worth Center
01:07AM 32.4158 -98.0175 139° Southeast 501 577 43,000  Level Fort Worth Center
01:08AM 32.3108 -97.9097 139° Southeast 503 579 43,000  Level Fort Worth Center
01:09AM 32.2061 -97.8006 139° Southeast 506 582 43,000  Level Fort Worth Center
01:10AM 32.1003 -97.6939 139° Southeast 503 579 43,000  Level Fort Worth Center
01:11AM 31.9961 -97.5872 139° Southeast 499 574 43,000  Level Fort Worth Center
01:12AM 31.8819 -97.4714 139° Southeast 497 572 43,000  Level Fort Worth Center
01:13AM 31.7761 -97.3661 140° Southeast 494 568 43,000  Level Fort Worth Center
01:14AM 31.6711 -97.2592 139° Southeast 492 566 43,000  Level Fort Worth Center
01:15AM 31.5647 -97.1536 140° Southeast 494 568 43,000  Level Fort Worth Center
01:16AM 31.4581 -97.0467 139° Southeast 496 571 43,000 -300 Level Fort Worth Center
01:17AM 31.3508 -96.9394 139° Southeast 498 573 42,400 -1,500 Descending Fort Worth Center
01:19AM 31.2244 -96.8136 140° Southeast 496 571 39,700 -2,340 Descending Houston Center
01:19AM 31.1358 -96.7292 141° Southeast 502 578 37,900 -2,460 Descending Houston Center
01:19AM 31.1269 -96.7206 140° Southeast 504 580 37,700 -1,800 Descending Houston Center
01:20AM 31.1139 -96.7050 134° Southeast 507 583 37,400 -2,400 Descending Houston Center
01:20AM 31.0175 -96.6131 141° Southeast 527 606 35,300 -2,400 Descending Houston Center
01:21AM 30.9994 -96.5911 134° Southeast 525 604 35,000 -2,340 Descending Houston Center
01:21AM 30.8964 -96.4900 140° Southeast 518 596 32,700 -2,460 Descending Houston Center
01:22AM 30.8889 -96.4828 140° Southeast 518 596 32,500 -2,520 Descending Houston Center
01:22AM 30.7961 -96.3942 141° Southeast 521 600 30,400 -2,640 Descending Houston Center
01:23AM 30.7739 -96.3719 139° Southeast 525 604 29,900 -3,000 Descending Houston Center
01:23AM 30.6803 -96.2856 142° Southeast 513 590 27,400 -3,000 Descending Houston Center
01:24AM 30.6633 -96.2694 141° Southeast 513 590 26,900 -3,180 Descending Houston Center
01:24AM 30.5711 -96.1839 141° Southeast 476 548 24,200 -3,000 Descending Houston Center
01:25AM 30.5597 -96.1703 134° Southeast 483 556 23,900 -2,940 Descending Houston Center
01:25AM 30.4750 -96.0906 141° Southeast 464 534 21,300 -3,180 Descending Houston Center
01:26AM 30.4575 -96.0750 143° Southeast 468 539 20,800 -3,060 Descending Houston Center
01:26AM 30.3725 -95.9958 141° Southeast 438 504 18,200 -3,000 Descending Houston Center
01:27AM 30.3625 -95.9867 142° Southeast 449 517 17,800 -3,000 Descending Houston Center
01:27AM 30.2789 -95.9097 142° Southeast 418 481 15,200 -2,940 Descending Houston Center
01:28AM 30.2719 -95.9006 131° Southeast 431 496 14,900 -2,940 Descending Houston Center
01:28AM 30.1942 -95.8303 142° Southeast 393 452 12,300 -2,820 Descending Houston Center
01:29AM 30.1858 -95.8228 142° Southeast 405 466 12,100 -1,920 Descending Houston Center
01:30AM 30.1097 -95.7531 142° Southeast 343 395 10,200 -1,800 Descending Houston Center
01:30AM 30.1100 -95.7511 81° East 358 412 10,300 -2,040 Climbing Houston Center
01:31AM 30.0392 -95.6889 143° Southeast 322 371 8,200 -2,100 Descending Houston Center
01:31AM 30.0386 -95.6869 108° East 332 382 8,200 -1,980 Level Houston Center
01:32AM 29.9717 -95.6247 141° Southeast 316 364 6,200 -1,680 Descending Houston Center
01:33AM 29.9119 -95.5697 141° Southeast 287 330 4,900 -1,380 Descending Houston Center
01:33AM 29.9039 -95.5625 142° Southeast 264 304 4,700 -1,560 Descending Houston Center
01:34AM 29.8492 -95.5136 142° Southeast 247 284 3,200 -1,440 Descending Houston Center
01:35AM 29.8042 -95.4706 140° Southeast 246 283 2,000 -1,200 Descending Houston Center
01:35AM 29.7983 -95.4644 138° Southeast 231 266 2,000  Level Houston Center
01:36AM 29.7653 -95.4219 132° Southeast 219 252 2,000  Level Houston Center
01:36AM 29.7581 -95.4139 136° Southeast 202 232 2,000  Level Houston Center
01:37AM 29.7281 -95.3742 131° Southeast 203 234 2,000  Level Houston Center
01:37AM 29.7200 -95.3656 137° Southeast 200 230 2,000 -600 Level Houston Center
01:38AM 29.6917 -95.3325 135° Southeast 193 222 1,400 -900 Descending Houston Center
01:38AM 29.6850 -95.3264 141° Southeast 163 188 1,100 -900 Descending Houston Center
01:39AM 29.6642 -95.3003 133° Southeast 165 190 500 -720 Descending Houston Center
01:39AM 29.6592 -95.2958 142° Southeast 125 144 400 -420 Descending Houston Center
01:40AM 29.6428 -95.2756 133° Southeast 148 170 100 -360 Descending Houston Center